Time;durP1;ratioP1;P1;durP2;ratioP2;P2;SDS_P1;SDS_P2;PMS_P1;PMS_P2;Temp;Humidity;BMP_temperature;BMP_pressure;BME280_temperature;BME280_humidity;BME280_pressure;Samples;Min_cycle;Max_cycle;Signal;HPM_P1;HPM_P2
2021/11/27 00:01:16;;;;;;;14.18;3.00;;;12.60;96.70;;;;;;4870944;29;20515;-78
2021/11/27 00:03:44;;;;;;;10.48;2.83;;;12.50;96.70;;;;;;4871618;29;20545;-78
2021/11/27 00:06:12;;;;;;;12.70;3.05;;;12.50;96.70;;;;;;4866268;29;20053;-77
2021/11/27 00:08:42;;;;;;;16.90;3.03;;;12.50;96.70;;;;;;4870903;29;20100;-78
2021/11/27 00:11:10;;;;;;;8.93;3.40;;;12.50;96.70;;;;;;4870334;29;20049;-77
2021/11/27 00:13:38;;;;;;;10.02;3.13;;;12.40;96.70;;;;;;4884848;29;20051;-77
2021/11/27 00:16:07;;;;;;;12.60;2.95;;;12.40;96.70;;;;;;4872847;29;20048;-78
2021/11/27 00:18:35;;;;;;;12.68;2.40;;;12.50;96.70;;;;;;4889136;29;20559;-77
2021/11/27 00:21:06;;;;;;;12.70;2.28;;;12.60;96.70;;;;;;4889977;29;20053;-77
2021/11/27 00:23:38;;;;;;;9.98;2.47;;;12.50;96.70;;;;;;4888009;29;20048;-77
2021/11/27 00:26:09;;;;;;;15.60;3.08;;;12.50;96.70;;;;;;4874503;29;20041;-77
2021/11/27 00:28:38;;;;;;;10.77;2.00;;;12.50;96.70;;;;;;4887913;29;20045;-78
2021/11/27 00:31:08;;;;;;;11.93;3.00;;;12.40;96.70;;;;;;4872733;29;20048;-76
2021/11/27 00:33:38;;;;;;;11.45;2.08;;;12.40;96.70;;;;;;4873450;29;20127;-78
2021/11/27 00:36:06;;;;;;;13.55;2.58;;;12.40;96.70;;;;;;4872324;29;20036;-79
2021/11/27 00:38:34;;;;;;;12.93;2.17;;;12.40;96.70;;;;;;4888993;29;20076;-77
2021/11/27 00:41:04;;;;;;;11.68;2.03;;;12.40;96.70;;;;;;4890185;29;20056;-77
2021/11/27 00:43:35;;;;;;;16.00;3.47;;;12.40;96.70;;;;;;4872922;29;20476;-77
2021/11/27 00:46:04;;;;;;;9.10;2.20;;;12.40;96.70;;;;;;4871574;29;20059;-76
2021/11/27 00:48:33;;;;;;;10.73;2.03;;;12.40;96.70;;;;;;4872965;29;20044;-77
2021/11/27 00:51:03;;;;;;;10.73;2.00;;;12.40;96.70;;;;;;4889068;29;20415;-78
2021/11/27 00:53:32;;;;;;;10.27;2.20;;;12.40;96.70;;;;;;4871251;29;20053;-78
2021/11/27 00:56:01;;;;;;;7.75;2.10;;;12.30;96.70;;;;;;4886570;29;20048;-77
2021/11/27 00:58:30;;;;;;;11.90;2.50;;;12.40;96.70;;;;;;4861268;29;20132;-78
2021/11/27 01:01:04;;;;;;;9.68;2.55;;;12.40;96.70;;;;;;4873887;29;20057;-77
2021/11/27 01:03:35;;;;;;;12.15;2.17;;;12.30;96.70;;;;;;4873751;29;20596;-77
2021/11/27 01:06:07;;;;;;;10.48;1.90;;;12.20;96.70;;;;;;4859487;29;20053;-78
2021/11/27 01:08:36;;;;;;;10.32;2.10;;;12.30;96.70;;;;;;4869989;29;20477;-77
2021/11/27 01:11:09;;;;;;;9.15;1.88;;;12.30;96.70;;;;;;4871767;29;20045;-78
2021/11/27 01:13:40;;;;;;;9.88;1.65;;;12.30;96.70;;;;;;4876108;29;20044;-78
2021/11/27 01:16:10;;;;;;;6.07;1.50;;;12.30;96.70;;;;;;4871149;29;20041;-78
2021/11/27 01:18:39;;;;;;;16.17;2.30;;;12.30;96.70;;;;;;4889714;29;20045;-77
2021/11/27 01:21:12;;;;;;;11.82;2.10;;;12.20;96.70;;;;;;4858595;29;20389;-78
2021/11/27 01:23:41;;;;;;;8.70;2.00;;;12.20;96.70;;;;;;4874120;29;20068;-78
2021/11/27 01:26:09;;;;;;;9.88;2.42;;;12.10;96.70;;;;;;4872276;29;20417;-77
2021/11/27 01:28:38;;;;;;;8.57;1.83;;;12.20;96.70;;;;;;4871860;29;20119;-79
2021/11/27 01:31:06;;;;;;;11.60;2.20;;;12.10;96.70;;;;;;4869321;29;20504;-78
2021/11/27 01:33:37;;;;;;;9.32;1.90;;;12.10;96.70;;;;;;4885217;29;20044;-77
2021/11/27 01:36:05;;;;;;;9.65;1.90;;;12.10;96.70;;;;;;4871667;29;20388;-78
2021/11/27 01:38:35;;;;;;;13.32;1.85;;;12.10;96.70;;;;;;4873837;29;20057;-79
2021/11/27 01:41:04;;;;;;;6.82;1.55;;;12.20;96.70;;;;;;4871136;29;20056;-78
2021/11/27 01:43:35;;;;;;;8.35;1.85;;;12.20;96.70;;;;;;4873671;29;20044;-77
2021/11/27 01:46:04;;;;;;;9.82;2.15;;;12.20;96.70;;;;;;4873870;29;20079;-79
2021/11/27 01:48:33;;;;;;;9.88;1.77;;;12.20;96.70;;;;;;4887078;29;20634;-80
2021/11/27 01:51:07;;;;;;;9.32;1.95;;;12.30;96.70;;;;;;4875322;29;20056;-80
2021/11/27 01:53:39;;;;;;;5.28;1.40;;;12.20;96.70;;;;;;4886189;29;20085;-79
2021/11/27 01:56:10;;;;;;;8.38;2.20;;;12.20;96.70;;;;;;4892169;29;20044;-79
2021/11/27 01:58:39;;;;;;;8.90;1.67;;;12.10;96.70;;;;;;4877715;29;20048;-80
2021/11/27 02:01:15;;;;;;;7.32;1.58;;;12.10;96.70;;;;;;4862939;29;20069;-78
2021/11/27 02:03:47;;;;;;;8.73;1.35;;;12.10;96.70;;;;;;4879210;29;20071;-78
2021/11/27 02:07:05;;;;;;;7.22;1.95;;;12.00;96.70;;;;;;4887681;29;20530;-78
2021/11/27 02:09:47;;;;;;;10.43;1.95;;;12.00;96.70;;;;;;4891726;29;20140;-79
2021/11/27 02:12:16;;;;;;;6.85;1.67;;;11.90;96.70;;;;;;4857822;29;20456;-78
2021/11/27 02:14:44;;;;;;;9.65;2.38;;;11.90;96.70;;;;;;4887892;29;20080;-78
2021/11/27 02:17:20;;;;;;;;;;;11.90;96.70;;;;;;4889487;29;20143;-78
2021/11/27 02:19:53;;;;;;;12.32;2.70;;;11.90;96.70;;;;;;4886917;29;20364;-77
2021/11/27 02:22:24;;;;;;;10.20;1.77;;;11.80;96.70;;;;;;4888287;29;20509;-78
2021/11/27 02:24:52;;;;;;;9.18;1.83;;;11.80;96.70;;;;;;4876368;29;20148;-78
2021/11/27 02:27:21;;;;;;;11.85;2.17;;;11.80;96.70;;;;;;4878192;29;20052;-79
2021/11/27 02:29:49;;;;;;;8.50;1.95;;;11.80;96.70;;;;;;4875217;29;20160;-79
2021/11/27 02:32:18;;;;;;;7.82;1.77;;;11.80;96.70;;;;;;4863249;29;20415;-78
2021/11/27 02:34:47;;;;;;;11.52;2.10;;;11.80;96.70;;;;;;4874078;29;20052;-77
2021/11/27 02:37:15;;;;;;;7.65;1.90;;;11.80;96.70;;;;;;4887288;29;20051;-79
2021/11/27 02:39:48;;;;;;;8.15;2.28;;;11.80;96.70;;;;;;4873640;29;20040;-78
2021/11/27 02:42:20;;;;;;;7.57;1.58;;;11.80;96.70;;;;;;4844034;29;20223;-78
2021/11/27 02:44:49;;;;;;;7.88;1.88;;;11.80;96.70;;;;;;4852471;29;20141;-77
2021/11/27 02:47:17;;;;;;;6.57;1.40;;;11.80;96.70;;;;;;4838704;29;20044;-77
2021/11/27 02:49:46;;;;;;;9.05;2.15;;;11.80;96.70;;;;;;4851492;29;20134;-78
2021/11/27 02:52:15;;;;;;;6.25;1.40;;;11.80;96.70;;;;;;4857456;29;20492;-78
2021/11/27 02:54:43;;;;;;;13.10;2.17;;;11.80;96.70;;;;;;4853501;29;20496;-78
2021/11/27 02:57:13;;;;;;;14.75;2.05;;;11.80;96.70;;;;;;4852144;29;20065;-77
2021/11/27 02:59:42;;;;;;;10.30;2.03;;;11.70;96.70;;;;;;4836081;29;20062;-78
2021/11/27 03:02:11;;;;;;;14.27;2.05;;;11.80;96.70;;;;;;4852722;29;20258;-78
2021/11/27 03:04:40;;;;;;;7.68;2.00;;;11.80;96.70;;;;;;4838118;29;20140;-78
2021/11/27 03:07:09;;;;;;;8.57;1.98;;;11.80;96.70;;;;;;4852581;29;20063;-77
2021/11/27 03:09:37;;;;;;;8.27;1.95;;;11.80;96.70;;;;;;4851319;29;20041;-77
2021/11/27 03:12:06;;;;;;;10.05;2.50;;;11.80;96.70;;;;;;4849750;29;20060;-77
2021/11/27 03:14:36;;;;;;;11.80;2.05;;;11.80;96.70;;;;;;4847684;29;20040;-76
2021/11/27 03:17:05;;;;;;;10.85;2.78;;;11.80;96.70;;;;;;4852534;29;20049;-77
2021/11/27 03:19:37;;;;;;;12.65;3.40;;;11.80;96.70;;;;;;4870255;29;20555;-77
2021/11/27 03:22:06;;;;;;;10.80;2.45;;;11.80;96.70;;;;;;4854410;29;20053;-77
2021/11/27 03:24:37;;;;;;;14.77;4.03;;;11.80;96.70;;;;;;4851599;29;20143;-77
2021/11/27 03:27:06;;;;;;;13.90;3.50;;;11.80;96.70;;;;;;4853866;29;20080;-77
2021/11/27 03:29:36;;;;;;;16.33;5.45;;;11.70;96.70;;;;;;4850732;29;20495;-77
2021/11/27 03:32:08;;;;;;;14.80;3.28;;;11.70;96.70;;;;;;4852900;29;20087;-77
2021/11/27 03:35:10;;;;;;;7.40;1.60;;;11.70;96.70;;;;;;4793200;29;20058;-77
2021/11/27 03:37:49;;;;;;;6.32;1.42;;;11.70;96.70;;;;;;4803059;29;20043;-77
2021/11/27 03:40:22;;;;;;;9.90;1.65;;;11.70;96.70;;;;;;4806691;29;20055;-77
2021/11/27 03:42:53;;;;;;;7.53;1.67;;;11.70;96.70;;;;;;4804682;29;20167;-76
2021/11/27 03:45:25;;;;;;;7.03;1.48;;;11.70;96.70;;;;;;4810737;29;20058;-77
2021/11/27 03:48:00;;;;;;;12.05;1.65;;;11.70;96.70;;;;;;4810234;29;20060;-77
2021/11/27 03:50:31;;;;;;;8.97;1.80;;;11.80;96.70;;;;;;4825300;29;20058;-79
2021/11/27 03:53:00;;;;;;;5.93;1.25;;;11.90;96.70;;;;;;4809379;29;20091;-77
2021/11/27 03:55:29;;;;;;;7.47;1.60;;;11.90;96.70;;;;;;4811964;29;20543;-77
2021/11/27 03:57:57;;;;;;;9.73;1.45;;;11.90;96.70;;;;;;4809889;29;20153;-77
2021/11/27 04:00:28;;;;;;;8.48;1.60;;;11.90;96.70;;;;;;4811827;29;20050;-78
2021/11/27 04:03:00;;;;;;;8.73;1.90;;;12.00;96.70;;;;;;4825063;29;20582;-78
2021/11/27 04:05:30;;;;;;;12.52;1.70;;;12.00;96.70;;;;;;4824172;29;20151;-79
2021/11/27 04:07:59;;;;;;;5.93;1.67;;;12.10;96.70;;;;;;4809887;29;20162;-78
2021/11/27 04:10:28;;;;;;;11.90;1.77;;;12.10;96.70;;;;;;4840411;29;20415;-77
2021/11/27 04:12:57;;;;;;;5.15;1.55;;;12.10;96.70;;;;;;4876471;29;20393;-77
2021/11/27 04:15:28;;;;;;;6.18;1.35;;;12.00;96.70;;;;;;4870763;29;20056;-78
2021/11/27 04:17:56;;;;;;;5.40;1.40;;;12.10;96.70;;;;;;4869175;29;20663;-77
2021/11/27 04:20:26;;;;;;;5.53;1.27;;;12.10;96.70;;;;;;4866420;29;20139;-78
2021/11/27 04:22:55;;;;;;;5.93;1.42;;;12.10;96.70;;;;;;4869871;29;20567;-77
2021/11/27 04:25:23;;;;;;;8.20;1.52;;;12.10;96.70;;;;;;4885393;29;20044;-77
2021/11/27 04:27:52;;;;;;;5.10;1.33;;;12.10;96.70;;;;;;4867891;29;20542;-77
2021/11/27 04:30:24;;;;;;;8.35;1.90;;;12.10;96.70;;;;;;4872953;29;20047;-77
2021/11/27 04:32:55;;;;;;;10.55;1.90;;;12.10;96.70;;;;;;4874267;29;20045;-79
2021/11/27 04:35:30;;;;;;;5.82;1.20;;;12.20;96.70;;;;;;4887924;29;20040;-78
2021/11/27 04:38:04;;;;;;;5.53;1.38;;;12.20;96.70;;;;;;4870405;29;20048;-76
2021/11/27 04:40:33;;;;;;;10.75;2.10;;;12.20;96.70;;;;;;4869544;29;20053;-75
2021/11/27 04:43:01;;;;;;;6.72;1.85;;;12.20;96.70;;;;;;4863200;29;20112;-76
2021/11/27 04:45:32;;;;;;;8.13;1.67;;;12.20;96.70;;;;;;4869087;29;20109;-75
2021/11/27 04:48:02;;;;;;;7.18;2.17;;;12.20;96.70;;;;;;4870384;29;20131;-76
2021/11/27 04:50:32;;;;;;;7.07;1.85;;;12.20;96.70;;;;;;4887340;29;20116;-76
2021/11/27 04:53:09;;;;;;;6.55;1.67;;;12.40;96.70;;;;;;4884492;29;20534;-76
2021/11/27 04:55:38;;;;;;;8.77;3.65;;;12.40;96.70;;;;;;4854485;29;20052;-76
2021/11/27 04:58:12;;;;;;;9.23;3.25;;;12.40;96.70;;;;;;4856616;29;20057;-76
2021/11/27 05:00:43;;;;;;;10.65;1.58;;;12.30;96.70;;;;;;4870872;29;20511;-75
2021/11/27 05:03:16;;;;;;;4.55;1.52;;;12.20;96.70;;;;;;4879601;29;20056;-75
2021/11/27 05:05:45;;;;;;;5.20;1.75;;;12.30;96.70;;;;;;4876742;29;20056;-76
2021/11/27 05:08:15;;;;;;;8.63;2.20;;;12.40;96.70;;;;;;4872678;29;20406;-76
2021/11/27 05:10:44;;;;;;;6.32;1.65;;;12.40;96.70;;;;;;4874345;29;20051;-75
2021/11/27 05:13:13;;;;;;;9.45;1.88;;;12.40;96.70;;;;;;4875621;29;20064;-76
2021/11/27 05:15:41;;;;;;;7.07;1.35;;;12.40;96.70;;;;;;4872077;29;20519;-77
2021/11/27 05:18:16;;;;;;;7.10;1.63;;;12.50;96.70;;;;;;4874132;29;20425;-77
2021/11/27 05:20:59;;;;;;;11.40;1.80;;;12.40;96.70;;;;;;4889698;29;20468;-77
2021/11/27 05:23:30;;;;;;;7.80;1.10;;;12.40;96.70;;;;;;4872753;29;20048;-76
2021/11/27 05:26:11;;;;;;;9.15;1.77;;;12.40;96.70;;;;;;4859234;29;20044;-78
2021/11/27 05:29:14;;;;;;;8.73;2.22;;;12.40;96.70;;;;;;4849103;29;20455;-77
2021/11/27 05:31:45;;;;;;;6.22;1.50;;;12.40;96.70;;;;;;4881531;29;20049;-76
2021/11/27 05:34:33;;;;;;;5.30;1.38;;;12.40;96.70;;;;;;4873208;29;20123;-76
2021/11/27 05:37:03;;;;;;;8.07;1.88;;;12.40;96.70;;;;;;4890121;29;20473;-76
2021/11/27 05:39:33;;;;;;;6.65;1.42;;;12.40;96.70;;;;;;4877898;29;20418;-76
2021/11/27 05:42:01;;;;;;;5.22;1.63;;;12.40;96.70;;;;;;4860085;29;20079;-76
2021/11/27 05:44:33;;;;;;;6.60;1.48;;;12.40;96.70;;;;;;4872753;29;20051;-76
2021/11/27 05:47:03;;;;;;;7.70;1.58;;;12.40;96.70;;;;;;4893895;29;20060;-76
2021/11/27 05:49:35;;;;;;;7.40;1.73;;;12.40;96.70;;;;;;4877553;29;20049;-76
2021/11/27 05:52:13;;;;;;;8.65;1.63;;;12.50;96.70;;;;;;4875775;29;20037;-76
2021/11/27 05:54:42;;;;;;;10.73;1.83;;;12.60;96.70;;;;;;4874093;29;20575;-77
2021/11/27 05:57:10;;;;;;;9.65;1.88;;;12.60;96.70;;;;;;4871422;29;20128;-77
2021/11/27 05:59:38;;;;;;;7.72;1.52;;;12.60;96.70;;;;;;4874031;29;20063;-76
2021/11/27 06:02:06;;;;;;;6.40;1.77;;;12.60;96.70;;;;;;4888402;29;20694;-75
2021/11/27 06:04:36;;;;;;;8.60;2.50;;;12.50;96.70;;;;;;4857511;29;20139;-76
2021/11/27 06:07:04;;;;;;;9.27;1.70;;;12.50;96.70;;;;;;4871585;29;20052;-76
2021/11/27 06:09:36;;;;;;;8.02;1.50;;;12.50;96.70;;;;;;4871799;29;20048;-76
2021/11/27 06:12:05;;;;;;;9.52;1.58;;;12.60;96.70;;;;;;4854984;29;20147;-77
2021/11/27 06:14:34;;;;;;;5.63;1.15;;;12.50;96.70;;;;;;4870929;29;20044;-76
2021/11/27 06:17:03;;;;;;;6.75;1.45;;;12.50;96.70;;;;;;4887486;29;20052;-77
2021/11/27 06:19:32;;;;;;;8.73;1.77;;;12.50;96.70;;;;;;4889676;29;20507;-76
2021/11/27 06:22:02;;;;;;;7.45;1.83;;;12.60;96.70;;;;;;4871385;29;20052;-76
2021/11/27 06:24:30;;;;;;;9.65;1.63;;;12.60;96.70;;;;;;4879258;29;20442;-76
2021/11/27 06:26:59;;;;;;;12.07;1.65;;;12.60;96.70;;;;;;4874012;29;21008;-79
2021/11/27 06:29:27;;;;;;;8.48;2.00;;;12.50;96.70;;;;;;4873863;29;20036;-76
2021/11/27 06:31:55;;;;;;;8.10;1.80;;;12.50;96.70;;;;;;4877828;29;20040;-76
2021/11/27 06:34:23;;;;;;;9.77;1.55;;;12.50;96.70;;;;;;4873126;29;20096;-76
2021/11/27 06:36:51;;;;;;;11.50;2.17;;;12.50;96.70;;;;;;4871442;29;20079;-76
2021/11/27 06:39:22;;;;;;;8.52;1.48;;;12.60;96.70;;;;;;4875924;29;20044;-77
2021/11/27 06:41:51;;;;;;;8.63;1.50;;;12.60;96.70;;;;;;4856250;29;20103;-77
2021/11/27 06:44:47;;;;;;;9.32;1.25;;;12.60;96.70;;;;;;4889313;29;20582;-76
2021/11/27 06:47:16;;;;;;;12.15;2.08;;;12.60;96.70;;;;;;4873836;29;20589;-76
2021/11/27 06:49:46;;;;;;;10.93;1.73;;;12.60;96.70;;;;;;4888239;29;20547;-77
2021/11/27 06:52:15;;;;;;;8.48;1.20;;;12.60;96.70;;;;;;4872140;29;20052;-77
2021/11/27 06:54:45;;;;;;;6.63;1.20;;;12.70;96.70;;;;;;4887352;29;20143;-76
2021/11/27 06:57:13;;;;;;;11.02;2.10;;;12.60;96.70;;;;;;4878113;29;20559;-77
2021/11/27 06:59:42;;;;;;;11.18;1.85;;;12.60;96.70;;;;;;4890062;29;20301;-82
2021/11/27 07:02:43;;;;;;;8.55;1.23;;;12.60;96.70;;;;;;4845486;29;20041;-75
2021/11/27 07:05:29;;;;;;;10.88;1.83;;;12.70;96.70;;;;;;4890363;29;20530;-78
2021/11/27 07:08:05;;;;;;;13.10;2.00;;;12.70;96.70;;;;;;4876938;29;20658;-76
2021/11/27 07:10:50;;;;;;;10.13;1.30;;;12.80;96.70;;;;;;4882662;29;20047;-80
2021/11/27 07:13:21;;;;;;;10.48;1.70;;;12.80;96.70;;;;;;4873239;29;20051;-77
2021/11/27 07:15:52;;;;;;;9.18;1.58;;;12.80;96.70;;;;;;4870569;29;20040;-78
2021/11/27 07:18:21;;;;;;;7.35;1.70;;;12.80;96.70;;;;;;4883635;29;20377;-77
2021/11/27 07:20:49;;;;;;;6.80;1.60;;;12.80;96.70;;;;;;4889930;29;20044;-79
2021/11/27 07:23:18;;;;;;;9.13;1.08;;;12.90;96.70;;;;;;4872266;29;20096;-77
2021/11/27 07:25:48;;;;;;;9.20;1.20;;;12.90;96.70;;;;;;4874520;29;20072;-79
2021/11/27 07:28:28;;;;;;;11.30;1.48;;;12.90;96.70;;;;;;4869992;29;20048;-78
2021/11/27 07:30:56;;;;;;;7.53;1.80;;;12.90;96.70;;;;;;4882384;29;20405;-79
2021/11/27 07:33:25;;;;;;;61.92;34.15;;;12.90;96.70;;;;;;4888336;29;20036;-75
2021/11/27 07:35:54;;;;;;;6.05;1.77;;;12.90;96.70;;;;;;4870486;29;20515;-77
2021/11/27 07:38:22;;;;;;;7.70;1.20;;;12.90;96.70;;;;;;4891057;29;20054;-78
2021/11/27 07:40:52;;;;;;;9.25;1.38;;;12.90;96.70;;;;;;4854847;29;20044;-76
2021/11/27 07:43:20;;;;;;;5.88;1.23;;;13.00;96.70;;;;;;4878180;29;20140;-78
2021/11/27 07:45:57;;;;;;;9.88;1.85;;;13.00;96.70;;;;;;4864511;29;20052;-77
2021/11/27 07:48:55;;;;;;;9.00;1.50;;;13.00;96.70;;;;;;4860202;29;20614;-78
2021/11/27 07:51:42;;;;;;;6.82;1.42;;;13.10;96.70;;;;;;4868460;29;20047;-79
2021/11/27 07:54:11;;;;;;;3.63;1.13;;;13.10;96.70;;;;;;4880598;29;20500;-78
2021/11/27 07:56:40;;;;;;;5.78;1.48;;;13.20;96.70;;;;;;4882871;29;20417;-78
2021/11/27 07:59:09;;;;;;;8.63;1.10;;;13.20;96.70;;;;;;4868676;29;20131;-79
2021/11/27 08:01:37;;;;;;;6.07;1.27;;;13.20;96.70;;;;;;4870838;29;20048;-78
2021/11/27 08:04:06;;;;;;;7.90;1.60;;;13.30;96.70;;;;;;4884394;29;20040;-80
2021/11/27 08:06:34;;;;;;;6.55;1.27;;;13.30;96.70;;;;;;4869277;29;20037;-78
2021/11/27 08:09:03;;;;;;;5.05;0.98;;;13.30;96.70;;;;;;4883938;29;20048;-80
2021/11/27 08:11:31;;;;;;;8.75;1.60;;;13.30;96.70;;;;;;4871145;29;20109;-80
2021/11/27 08:14:01;;;;;;;7.43;1.08;;;13.30;96.70;;;;;;4868292;29;20431;-78
2021/11/27 08:16:30;;;;;;;5.07;1.02;;;13.30;96.70;;;;;;4888067;29;20048;-78
2021/11/27 08:18:58;;;;;;;6.60;1.42;;;13.30;96.70;;;;;;4876335;29;20630;-78
2021/11/27 08:21:26;;;;;;;4.70;0.95;;;13.20;96.70;;;;;;4870665;29;20065;-77
2021/11/27 08:23:56;;;;;;;7.70;1.10;;;13.20;96.70;;;;;;4887732;29;20048;-77
2021/11/27 08:26:24;;;;;;;10.32;1.63;;;13.20;96.70;;;;;;4886333;29;20113;-77
2021/11/27 08:28:52;;;;;;;4.28;0.90;;;13.20;96.70;;;;;;4870342;29;20811;-77
2021/11/27 08:31:22;;;;;;;8.18;2.17;;;13.10;96.70;;;;;;4868440;29;20119;-77
2021/11/27 08:33:50;;;;;;;8.52;1.67;;;13.10;96.70;;;;;;4868383;29;20101;-76
2021/11/27 08:36:19;;;;;;;7.68;1.25;;;13.10;96.70;;;;;;4871700;29;20048;-78
2021/11/27 08:38:47;;;;;;;10.95;1.25;;;13.20;96.70;;;;;;4890298;29;20653;-76
2021/11/27 08:41:15;;;;;;;10.98;1.73;;;13.20;96.70;;;;;;4870690;29;20069;-76
2021/11/27 08:43:44;;;;;;;5.43;1.10;;;13.20;96.70;;;;;;4872871;29;20037;-77
2021/11/27 08:46:14;;;;;;;6.07;1.00;;;13.20;96.70;;;;;;4870387;29;21125;-77
2021/11/27 08:48:47;;;;;;;8.63;1.00;;;13.20;96.70;;;;;;4889866;29;20056;-78
2021/11/27 08:51:17;;;;;;;6.25;1.42;;;13.30;96.70;;;;;;4866671;29;20244;-78
2021/11/27 08:53:45;;;;;;;6.70;1.40;;;13.30;96.70;;;;;;4871886;29;20044;-79
2021/11/27 08:56:18;;;;;;;7.82;2.05;;;13.40;96.70;;;;;;4873473;29;20043;-79
2021/11/27 08:58:49;;;;;;;5.10;1.27;;;13.50;96.70;;;;;;4879157;29;20049;-80
2021/11/27 09:01:18;;;;;;;8.02;1.23;;;13.50;96.70;;;;;;4874052;29;20809;-80
2021/11/27 09:03:48;;;;;;;7.03;1.30;;;13.60;96.70;;;;;;4873880;29;20142;-80
2021/11/27 09:06:17;;;;;;;6.22;1.33;;;13.70;96.70;;;;;;4887007;29;20049;-76
2021/11/27 09:08:49;;;;;;;7.13;1.48;;;13.90;96.70;;;;;;4888361;29;20083;-78
2021/11/27 09:11:20;;;;;;;5.70;0.95;;;14.20;96.70;;;;;;4871285;29;20056;-78
2021/11/27 09:13:55;;;;;;;7.30;1.02;;;14.20;96.70;;;;;;4884203;29;20209;-81
2021/11/27 09:16:27;;;;;;;7.00;1.50;;;14.10;96.70;;;;;;4885881;29;20060;-78
2021/11/27 09:19:06;;;;;;;6.53;0.90;;;14.20;96.70;;;;;;4867764;29;20559;-77
2021/11/27 09:21:35;;;;;;;5.97;1.23;;;14.40;96.70;;;;;;4873154;29;20135;-80
2021/11/27 09:24:04;;;;;;;5.05;0.82;;;14.40;96.70;;;;;;4888421;29;20040;-78
2021/11/27 09:26:34;;;;;;;8.40;1.92;;;14.40;96.70;;;;;;4874809;29;20624;-79
2021/11/27 09:29:03;;;;;;;7.43;1.30;;;14.60;96.70;;;;;;4870080;29;20047;-79
2021/11/27 09:31:32;;;;;;;7.00;1.15;;;14.60;96.70;;;;;;4873381;29;20074;-79
2021/11/27 09:34:01;;;;;;;7.30;0.90;;;14.50;96.70;;;;;;4887296;29;20052;-78
2021/11/27 09:36:30;;;;;;;3.15;0.68;;;14.40;96.70;;;;;;4873103;29;20066;-78
2021/11/27 09:38:58;;;;;;;5.20;0.80;;;14.30;96.70;;;;;;4868136;29;20040;-78
2021/11/27 09:41:30;;;;;;;6.57;1.05;;;14.30;96.70;;;;;;4873093;29;20060;-82
2021/11/27 09:44:03;;;;;;;3.95;0.90;;;14.30;96.70;;;;;;4873573;29;20044;-83
2021/11/27 09:46:33;;;;;;;6.72;1.05;;;14.40;96.70;;;;;;4855603;29;20045;-79
2021/11/27 09:49:05;;;;;;;6.97;1.02;;;14.40;96.70;;;;;;4875358;29;20044;-81
2021/11/27 09:51:35;;;;;;;5.32;0.73;;;14.30;96.70;;;;;;4873622;29;20044;-82
2021/11/27 09:54:06;;;;;;;7.90;1.10;;;14.30;96.70;;;;;;4888185;29;20037;-79
2021/11/27 09:56:34;;;;;;;6.63;1.13;;;14.40;96.70;;;;;;4889654;29;20053;-80
2021/11/27 09:59:03;;;;;;;4.55;0.70;;;14.50;96.70;;;;;;4854980;29;20056;-79
2021/11/27 10:01:33;;;;;;;2.65;0.90;;;14.60;96.70;;;;;;4888319;29;20052;-81
2021/11/27 10:04:06;;;;;;;6.45;0.75;;;14.70;96.70;;;;;;4884588;29;20055;-80
2021/11/27 10:06:37;;;;;;;9.00;1.23;;;14.70;96.70;;;;;;4872166;29;20067;-83
2021/11/27 10:09:09;;;;;;;8.35;1.98;;;14.80;96.70;;;;;;4874199;29;20319;-81
2021/11/27 10:11:43;;;;;;;6.13;1.08;;;14.80;96.70;;;;;;4882977;29;20067;-80
2021/11/27 10:14:12;;;;;;;6.55;0.95;;;14.90;96.70;;;;;;4871982;29;20155;-79
2021/11/27 10:17:12;;;;;;;5.70;1.00;;;15.10;96.70;;;;;;4885996;29;20044;-79
2021/11/27 10:19:57;;;;;;;6.63;1.23;;;15.20;96.70;;;;;;4887498;29;20404;-79
2021/11/27 10:22:42;;;;;;;6.00;1.48;;;15.30;96.70;;;;;;4889572;29;20048;-79
2021/11/27 10:25:32;;;;;;;5.22;1.38;;;15.30;96.70;;;;;;4881320;29;20111;-80
2021/11/27 10:28:10;;;;;;;6.00;1.27;;;15.30;96.70;;;;;;4885311;29;20047;-79
2021/11/27 10:31:03;;;;;;;6.10;1.95;;;15.30;96.70;;;;;;4872948;29;20059;-78
2021/11/27 10:33:39;;;;;;;3.83;0.90;;;15.40;96.70;;;;;;4870218;29;20092;-80
2021/11/27 10:36:12;;;;;;;5.97;1.17;;;15.40;96.70;;;;;;4854253;29;21573;-79
2021/11/27 10:38:43;;;;;;;4.55;0.80;;;15.50;96.70;;;;;;4855223;29;20060;-78
2021/11/27 10:41:14;;;;;;;6.68;1.05;;;15.50;96.70;;;;;;4870636;29;20052;-80
2021/11/27 10:44:00;;;;;;;4.15;1.10;;;15.50;96.70;;;;;;4868287;29;20056;-78
2021/11/27 10:46:31;;;;;;;6.55;1.05;;;15.50;96.70;;;;;;4852852;29;20617;-80
2021/11/27 10:49:01;;;;;;;3.30;0.82;;;15.70;96.70;;;;;;4861041;29;20049;-79
2021/11/27 10:51:31;;;;;;;4.80;0.85;;;15.70;96.70;;;;;;4883619;29;20048;-81
2021/11/27 10:54:02;;;;;;;3.40;1.30;;;15.80;96.70;;;;;;4882684;29;20044;-79
2021/11/27 10:56:44;;;;;;;3.88;1.20;;;15.80;96.70;;;;;;4866861;29;20425;-80
2021/11/27 10:59:13;;;;;;;1.73;0.57;;;15.80;96.70;;;;;;4885642;29;20037;-81
2021/11/27 11:02:00;;;;;;;3.05;0.95;;;15.80;96.70;;;;;;4866603;29;20203;-82
2021/11/27 11:04:32;;;;;;;3.72;1.00;;;15.70;96.70;;;;;;4886294;29;20045;-82
2021/11/27 11:07:17;;;;;;;2.72;0.65;;;15.40;96.70;;;;;;4883847;29;20134;-80
2021/11/27 11:10:19;;;;;;;2.03;0.55;;;14.80;96.70;;;;;;4870614;29;20040;-79
2021/11/27 11:12:50;;;;;;;4.95;0.90;;;14.40;96.70;;;;;;4884631;29;20051;-78
2021/11/27 11:15:24;;;;;;;6.80;1.13;;;14.10;96.70;;;;;;4853488;29;20056;-79
2021/11/27 11:18:09;;;;;;;3.80;0.60;;;13.90;96.70;;;;;;4869883;29;20419;-77
2021/11/27 11:20:43;;;;;;;6.47;1.30;;;13.80;96.70;;;;;;4884292;29;20044;-76
2021/11/27 11:23:15;;;;;;;5.82;1.17;;;13.70;96.70;;;;;;4869007;29;20307;-77
2021/11/27 11:26:00;;;;;;;4.30;1.10;;;13.60;96.70;;;;;;4868988;29;20151;-76
2021/11/27 11:28:30;;;;;;;4.95;1.13;;;13.60;96.70;;;;;;4868805;29;20050;-76
2021/11/27 11:31:04;;;;;;;7.63;1.35;;;13.60;96.70;;;;;;4885045;29;20148;-75
2021/11/27 11:33:36;;;;;;;5.00;1.10;;;13.60;96.70;;;;;;4884160;29;20136;-75
2021/11/27 11:36:07;;;;;;;6.25;1.75;;;13.60;96.70;;;;;;4869877;29;20052;-76
2021/11/27 11:38:39;;;;;;;3.88;1.38;;;13.60;96.70;;;;;;4885995;29;20041;-75
2021/11/27 11:41:08;;;;;;;7.45;2.58;;;13.60;96.70;;;;;;4885236;29;20143;-75
2021/11/27 11:43:37;;;;;;;6.13;2.20;;;13.60;96.70;;;;;;4852726;29;20095;-76
2021/11/27 11:46:06;;;;;;;9.43;2.08;;;13.70;96.70;;;;;;4885811;29;20136;-75
2021/11/27 11:48:35;;;;;;;5.78;1.52;;;14.00;96.70;;;;;;4886393;29;20063;-76
2021/11/27 11:51:11;;;;;;;4.57;1.60;;;14.30;96.70;;;;;;4854106;29;20089;-76
2021/11/27 11:53:47;;;;;;;6.07;1.48;;;14.70;96.70;;;;;;4870090;29;20048;-77
2021/11/27 11:56:18;;;;;;;4.20;1.02;;;15.00;96.70;;;;;;4885844;29;20045;-77
2021/11/27 11:58:49;;;;;;;3.63;1.00;;;15.10;96.70;;;;;;4886030;29;20075;-77
2021/11/27 12:01:20;;;;;;;6.38;1.10;;;14.80;96.70;;;;;;4881744;29;20071;-77
2021/11/27 12:03:50;;;;;;;8.32;1.35;;;14.60;96.70;;;;;;4883933;29;20045;-75
2021/11/27 12:06:24;;;;;;;7.70;1.38;;;14.50;96.70;;;;;;4885284;29;20040;-75
2021/11/27 12:09:03;;;;;;;3.40;0.63;;;14.10;96.70;;;;;;4884320;29;20075;-75
2021/11/27 12:12:20;;;;;;;3.47;0.65;;;13.80;96.70;;;;;;4885629;29;20051;-76
2021/11/27 12:15:06;;;;;;;5.20;0.65;;;13.60;96.70;;;;;;4884536;29;20064;-77
2021/11/27 12:18:05;;;;;;;4.20;0.73;;;13.40;96.70;;;;;;4886502;29;20206;-79
2021/11/27 12:20:42;;;;;;;5.18;0.80;;;13.50;96.70;;;;;;4885002;29;20052;-76
2021/11/27 12:23:35;;;;;;;3.40;0.95;;;13.50;96.70;;;;;;4887983;29;20048;-77
2021/11/27 12:26:32;;;;;;;8.13;1.90;;;13.60;96.70;;;;;;4850052;29;20096;-77
2021/11/27 12:29:14;;;;;;;31.85;21.45;;;13.90;96.70;;;;;;4870115;29;20067;-77
2021/11/27 12:31:45;;;;;;;9.65;3.72;;;13.70;96.70;;;;;;4878300;29;20567;-75
2021/11/27 12:34:38;;;;;;;7.82;3.08;;;13.50;96.70;;;;;;4868906;29;20136;-77
2021/11/27 12:37:26;;;;;;;4.88;1.70;;;13.30;96.70;;;;;;4889975;29;20045;-77
2021/11/27 12:39:56;;;;;;;7.20;2.22;;;13.10;96.70;;;;;;4873311;29;20137;-77
2021/11/27 12:42:35;;;;;;;6.95;2.25;;;13.00;96.70;;;;;;4879429;29;20148;-78
2021/11/27 12:45:09;;;;;;;6.45;2.30;;;12.90;96.70;;;;;;4883384;29;20642;-77
2021/11/27 12:47:42;;;;;;;10.00;2.97;;;12.90;96.70;;;;;;4876956;29;20162;-77
2021/11/27 12:50:21;;;;;;;13.20;5.53;;;12.80;96.70;;;;;;4886080;29;20590;-81
2021/11/27 12:52:51;;;;;;;18.90;9.57;;;12.60;96.70;;;;;;4871013;29;20063;-78
2021/11/27 12:55:43;;;;;;;14.50;4.70;;;12.10;96.70;;;;;;4853377;29;20071;-77
2021/11/27 12:58:38;;;;;;;11.05;3.92;;;11.90;96.70;;;;;;4872812;29;20083;-77
2021/11/27 13:01:06;;;;;;;6.55;1.60;;;11.90;96.70;;;;;;4869766;29;20045;-77
2021/11/27 13:03:35;;;;;;;10.48;4.00;;;12.10;96.70;;;;;;4867196;29;20052;-76
2021/11/27 13:06:04;;;;;;;4.50;1.20;;;12.50;96.70;;;;;;4888440;29;20410;-77
2021/11/27 13:08:35;;;;;;;5.47;1.88;;;12.90;96.70;;;;;;4862898;29;20044;-76
2021/11/27 13:11:13;;;;;;;12.23;4.97;;;13.10;96.70;;;;;;4885722;29;20076;-75
2021/11/27 13:13:45;;;;;;;4.20;1.90;;;13.30;96.70;;;;;;4883648;29;20057;-77